sensor_id;sensor_type;location;lat;lon;timestamp;P1;durP1;ratioP1;P2;durP2;ratioP2
71303;SDS011;59091;47.446;19.148;2024-01-30T00:00:37;33.88;;;17.50;;
71303;SDS011;59091;47.446;19.148;2024-01-30T00:03:02;34.97;;;17.35;;
71303;SDS011;59091;47.446;19.148;2024-01-30T00:05:28;35.75;;;17.70;;
71303;SDS011;59091;47.446;19.148;2024-01-30T00:07:53;34.72;;;17.75;;
71303;SDS011;59091;47.446;19.148;2024-01-30T00:10:19;34.53;;;17.85;;
71303;SDS011;59091;47.446;19.148;2024-01-30T00:12:44;35.03;;;17.52;;
71303;SDS011;59091;47.446;19.148;2024-01-30T00:15:10;36.15;;;17.27;;
71303;SDS011;59091;47.446;19.148;2024-01-30T00:17:36;40.45;;;17.10;;
71303;SDS011;59091;47.446;19.148;2024-01-30T00:20:02;33.70;;;16.63;;
71303;SDS011;59091;47.446;19.148;2024-01-30T00:22:30;40.63;;;18.10;;
71303;SDS011;59091;47.446;19.148;2024-01-30T00:24:58;37.67;;;17.63;;
71303;SDS011;59091;47.446;19.148;2024-01-30T00:27:25;36.00;;;17.27;;
71303;SDS011;59091;47.446;19.148;2024-01-30T00:29:51;40.38;;;18.65;;
71303;SDS011;59091;47.446;19.148;2024-01-30T00:32:16;35.03;;;17.42;;
71303;SDS011;59091;47.446;19.148;2024-01-30T00:34:44;42.22;;;18.67;;
71303;SDS011;59091;47.446;19.148;2024-01-30T00:37:09;39.08;;;19.35;;
71303;SDS011;59091;47.446;19.148;2024-01-30T00:39:34;41.70;;;19.08;;
71303;SDS011;59091;47.446;19.148;2024-01-30T00:42:00;34.17;;;17.23;;
71303;SDS011;59091;47.446;19.148;2024-01-30T00:44:25;38.08;;;18.30;;
71303;SDS011;59091;47.446;19.148;2024-01-30T00:46:51;36.55;;;18.27;;
71303;SDS011;59091;47.446;19.148;2024-01-30T00:49:16;40.63;;;18.58;;
71303;SDS011;59091;47.446;19.148;2024-01-30T00:51:41;41.20;;;18.00;;
71303;SDS011;59091;47.446;19.148;2024-01-30T00:54:07;44.38;;;19.05;;
71303;SDS011;59091;47.446;19.148;2024-01-30T00:56:33;34.88;;;18.23;;
71303;SDS011;59091;47.446;19.148;2024-01-30T00:58:58;37.38;;;18.30;;
71303;SDS011;59091;47.446;19.148;2024-01-30T01:01:24;34.35;;;18.35;;
71303;SDS011;59091;47.446;19.148;2024-01-30T01:03:49;36.83;;;18.13;;
71303;SDS011;59091;47.446;19.148;2024-01-30T01:06:14;38.63;;;18.85;;
71303;SDS011;59091;47.446;19.148;2024-01-30T01:08:40;39.47;;;18.38;;
71303;SDS011;59091;47.446;19.148;2024-01-30T01:11:05;39.67;;;18.27;;
71303;SDS011;59091;47.446;19.148;2024-01-30T01:13:31;39.28;;;18.75;;
71303;SDS011;59091;47.446;19.148;2024-01-30T01:15:56;38.80;;;17.50;;
71303;SDS011;59091;47.446;19.148;2024-01-30T01:18:21;40.10;;;18.75;;
71303;SDS011;59091;47.446;19.148;2024-01-30T01:20:47;37.70;;;17.05;;
71303;SDS011;59091;47.446;19.148;2024-01-30T01:23:12;36.38;;;18.35;;
71303;SDS011;59091;47.446;19.148;2024-01-30T01:25:38;37.05;;;17.77;;
71303;SDS011;59091;47.446;19.148;2024-01-30T01:28:03;37.78;;;18.02;;
71303;SDS011;59091;47.446;19.148;2024-01-30T01:30:29;41.83;;;19.67;;
71303;SDS011;59091;47.446;19.148;2024-01-30T01:32:55;39.47;;;18.23;;
71303;SDS011;59091;47.446;19.148;2024-01-30T01:35:24;40.50;;;19.75;;
71303;SDS011;59091;47.446;19.148;2024-01-30T01:37:50;38.63;;;19.13;;
71303;SDS011;59091;47.446;19.148;2024-01-30T01:40:24;41.03;;;18.45;;
71303;SDS011;59091;47.446;19.148;2024-01-30T01:42:50;41.90;;;19.92;;
71303;SDS011;59091;47.446;19.148;2024-01-30T01:45:20;41.78;;;20.17;;
71303;SDS011;59091;47.446;19.148;2024-01-30T01:47:47;46.08;;;20.60;;
71303;SDS011;59091;47.446;19.148;2024-01-30T01:50:15;41.25;;;21.17;;
71303;SDS011;59091;47.446;19.148;2024-01-30T01:52:44;42.15;;;20.83;;
71303;SDS011;59091;47.446;19.148;2024-01-30T01:55:12;41.78;;;20.60;;
71303;SDS011;59091;47.446;19.148;2024-01-30T01:57:38;43.70;;;20.20;;
71303;SDS011;59091;47.446;19.148;2024-01-30T02:00:04;45.67;;;20.83;;
71303;SDS011;59091;47.446;19.148;2024-01-30T02:02:30;45.60;;;21.23;;
71303;SDS011;59091;47.446;19.148;2024-01-30T02:04:59;42.90;;;21.67;;
71303;SDS011;59091;47.446;19.148;2024-01-30T02:07:25;44.08;;;20.55;;
71303;SDS011;59091;47.446;19.148;2024-01-30T02:09:52;46.55;;;21.65;;
71303;SDS011;59091;47.446;19.148;2024-01-30T02:12:18;43.20;;;21.90;;
71303;SDS011;59091;47.446;19.148;2024-01-30T02:14:47;44.05;;;21.02;;
71303;SDS011;59091;47.446;19.148;2024-01-30T02:17:13;41.47;;;20.77;;
71303;SDS011;59091;47.446;19.148;2024-01-30T02:19:39;46.63;;;21.17;;
71303;SDS011;59091;47.446;19.148;2024-01-30T02:22:05;47.15;;;22.77;;
71303;SDS011;59091;47.446;19.148;2024-01-30T02:24:30;42.78;;;21.25;;
71303;SDS011;59091;47.446;19.148;2024-01-30T02:26:56;45.20;;;20.95;;
71303;SDS011;59091;47.446;19.148;2024-01-30T02:29:22;40.58;;;20.98;;
71303;SDS011;59091;47.446;19.148;2024-01-30T02:31:47;46.42;;;21.75;;
71303;SDS011;59091;47.446;19.148;2024-01-30T02:34:13;47.80;;;21.67;;
71303;SDS011;59091;47.446;19.148;2024-01-30T02:36:41;44.78;;;22.05;;
71303;SDS011;59091;47.446;19.148;2024-01-30T02:39:07;45.47;;;21.75;;
71303;SDS011;59091;47.446;19.148;2024-01-30T02:41:33;43.65;;;21.35;;
71303;SDS011;59091;47.446;19.148;2024-01-30T02:43:58;44.92;;;21.95;;
71303;SDS011;59091;47.446;19.148;2024-01-30T02:46:23;46.85;;;21.88;;
71303;SDS011;59091;47.446;19.148;2024-01-30T02:48:49;44.50;;;21.75;;
71303;SDS011;59091;47.446;19.148;2024-01-30T02:51:14;51.53;;;22.55;;
71303;SDS011;59091;47.446;19.148;2024-01-30T02:53:40;51.53;;;22.40;;
71303;SDS011;59091;47.446;19.148;2024-01-30T02:56:05;53.83;;;22.85;;
71303;SDS011;59091;47.446;19.148;2024-01-30T02:58:34;52.80;;;23.05;;
71303;SDS011;59091;47.446;19.148;2024-01-30T03:01:00;49.67;;;23.13;;
71303;SDS011;59091;47.446;19.148;2024-01-30T03:03:25;49.08;;;23.38;;
71303;SDS011;59091;47.446;19.148;2024-01-30T03:05:51;59.42;;;24.52;;
71303;SDS011;59091;47.446;19.148;2024-01-30T03:08:16;50.85;;;23.35;;
71303;SDS011;59091;47.446;19.148;2024-01-30T03:10:41;56.20;;;24.70;;
71303;SDS011;59091;47.446;19.148;2024-01-30T03:13:07;49.88;;;23.58;;
71303;SDS011;59091;47.446;19.148;2024-01-30T03:15:32;55.30;;;25.20;;
71303;SDS011;59091;47.446;19.148;2024-01-30T03:17:57;56.75;;;25.00;;
71303;SDS011;59091;47.446;19.148;2024-01-30T03:20:23;51.22;;;24.25;;
71303;SDS011;59091;47.446;19.148;2024-01-30T03:22:49;55.30;;;25.33;;
71303;SDS011;59091;47.446;19.148;2024-01-30T03:25:14;55.78;;;24.85;;
71303;SDS011;59091;47.446;19.148;2024-01-30T03:27:40;51.42;;;24.92;;
71303;SDS011;59091;47.446;19.148;2024-01-30T03:30:06;52.70;;;23.92;;
71303;SDS011;59091;47.446;19.148;2024-01-30T03:32:32;55.63;;;24.95;;
71303;SDS011;59091;47.446;19.148;2024-01-30T03:34:57;50.80;;;23.15;;
71303;SDS011;59091;47.446;19.148;2024-01-30T03:37:23;45.13;;;22.52;;
71303;SDS011;59091;47.446;19.148;2024-01-30T03:39:48;42.83;;;21.75;;
71303;SDS011;59091;47.446;19.148;2024-01-30T03:42:14;49.28;;;22.75;;
71303;SDS011;59091;47.446;19.148;2024-01-30T03:44:39;43.97;;;21.15;;
71303;SDS011;59091;47.446;19.148;2024-01-30T03:47:05;40.20;;;21.52;;
71303;SDS011;59091;47.446;19.148;2024-01-30T03:49:30;41.42;;;20.65;;
71303;SDS011;59091;47.446;19.148;2024-01-30T03:51:56;41.63;;;20.40;;
71303;SDS011;59091;47.446;19.148;2024-01-30T03:54:21;43.05;;;20.08;;
71303;SDS011;59091;47.446;19.148;2024-01-30T03:56:46;39.85;;;19.83;;
71303;SDS011;59091;47.446;19.148;2024-01-30T03:59:12;42.50;;;20.02;;
71303;SDS011;59091;47.446;19.148;2024-01-30T04:01:37;46.53;;;19.83;;
71303;SDS011;59091;47.446;19.148;2024-01-30T04:04:03;39.80;;;19.25;;
71303;SDS011;59091;47.446;19.148;2024-01-30T04:06:28;42.03;;;19.77;;
71303;SDS011;59091;47.446;19.148;2024-01-30T04:08:54;42.58;;;21.10;;
71303;SDS011;59091;47.446;19.148;2024-01-30T04:11:19;44.72;;;19.75;;
71303;SDS011;59091;47.446;19.148;2024-01-30T04:13:45;46.63;;;20.65;;
71303;SDS011;59091;47.446;19.148;2024-01-30T04:16:22;42.42;;;20.33;;
71303;SDS011;59091;47.446;19.148;2024-01-30T04:18:47;40.95;;;19.23;;
71303;SDS011;59091;47.446;19.148;2024-01-30T04:21:13;39.78;;;20.13;;
71303;SDS011;59091;47.446;19.148;2024-01-30T04:23:39;41.58;;;18.73;;
71303;SDS011;59091;47.446;19.148;2024-01-30T04:26:08;38.70;;;19.50;;
71303;SDS011;59091;47.446;19.148;2024-01-30T04:28:33;41.50;;;18.95;;
71303;SDS011;59091;47.446;19.148;2024-01-30T04:30:58;41.47;;;19.17;;
71303;SDS011;59091;47.446;19.148;2024-01-30T04:33:24;40.85;;;18.83;;
71303;SDS011;59091;47.446;19.148;2024-01-30T04:35:49;40.40;;;18.58;;
71303;SDS011;59091;47.446;19.148;2024-01-30T04:38:15;36.38;;;17.75;;
71303;SDS011;59091;47.446;19.148;2024-01-30T04:40:40;37.17;;;17.15;;
71303;SDS011;59091;47.446;19.148;2024-01-30T04:43:06;38.50;;;18.20;;
71303;SDS011;59091;47.446;19.148;2024-01-30T04:45:31;37.63;;;16.90;;
71303;SDS011;59091;47.446;19.148;2024-01-30T04:47:56;35.60;;;17.40;;
71303;SDS011;59091;47.446;19.148;2024-01-30T04:50:22;38.45;;;18.00;;
71303;SDS011;59091;47.446;19.148;2024-01-30T04:52:48;37.78;;;17.27;;
71303;SDS011;59091;47.446;19.148;2024-01-30T04:55:13;41.40;;;17.25;;
71303;SDS011;59091;47.446;19.148;2024-01-30T04:57:39;34.17;;;17.65;;
71303;SDS011;59091;47.446;19.148;2024-01-30T05:00:04;35.50;;;17.98;;
71303;SDS011;59091;47.446;19.148;2024-01-30T05:02:31;31.50;;;16.70;;
71303;SDS011;59091;47.446;19.148;2024-01-30T05:04:56;30.90;;;15.70;;
71303;SDS011;59091;47.446;19.148;2024-01-30T05:07:23;38.63;;;17.60;;
71303;SDS011;59091;47.446;19.148;2024-01-30T05:09:50;37.00;;;17.42;;
71303;SDS011;59091;47.446;19.148;2024-01-30T05:12:15;31.52;;;16.45;;
71303;SDS011;59091;47.446;19.148;2024-01-30T05:14:40;37.58;;;17.60;;
71303;SDS011;59091;47.446;19.148;2024-01-30T05:17:06;36.28;;;17.77;;
71303;SDS011;59091;47.446;19.148;2024-01-30T05:19:33;37.00;;;16.85;;
71303;SDS011;59091;47.446;19.148;2024-01-30T05:21:58;38.95;;;18.65;;
71303;SDS011;59091;47.446;19.148;2024-01-30T05:24:24;29.77;;;15.77;;
71303;SDS011;59091;47.446;19.148;2024-01-30T05:26:49;35.28;;;17.00;;
71303;SDS011;59091;47.446;19.148;2024-01-30T05:29:16;39.42;;;17.30;;
71303;SDS011;59091;47.446;19.148;2024-01-30T05:31:41;33.22;;;16.85;;
71303;SDS011;59091;47.446;19.148;2024-01-30T05:34:07;35.90;;;17.52;;
71303;SDS011;59091;47.446;19.148;2024-01-30T05:36:33;36.55;;;17.00;;
71303;SDS011;59091;47.446;19.148;2024-01-30T05:38:59;35.35;;;16.10;;
71303;SDS011;59091;47.446;19.148;2024-01-30T05:41:24;33.65;;;16.85;;
71303;SDS011;59091;47.446;19.148;2024-01-30T05:43:49;33.80;;;17.05;;
71303;SDS011;59091;47.446;19.148;2024-01-30T05:46:15;38.45;;;18.77;;
71303;SDS011;59091;47.446;19.148;2024-01-30T05:48:40;42.10;;;19.88;;
71303;SDS011;59091;47.446;19.148;2024-01-30T05:51:06;41.25;;;20.00;;
71303;SDS011;59091;47.446;19.148;2024-01-30T05:53:32;40.60;;;20.10;;
71303;SDS011;59091;47.446;19.148;2024-01-30T05:55:57;43.88;;;19.15;;
71303;SDS011;59091;47.446;19.148;2024-01-30T05:58:23;40.33;;;18.58;;
71303;SDS011;59091;47.446;19.148;2024-01-30T06:00:48;36.80;;;18.77;;
71303;SDS011;59091;47.446;19.148;2024-01-30T06:03:14;42.30;;;18.77;;
71303;SDS011;59091;47.446;19.148;2024-01-30T06:05:39;43.22;;;20.52;;
71303;SDS011;59091;47.446;19.148;2024-01-30T06:08:05;45.47;;;20.73;;
71303;SDS011;59091;47.446;19.148;2024-01-30T06:10:30;41.90;;;19.45;;
71303;SDS011;59091;47.446;19.148;2024-01-30T06:12:56;44.50;;;19.83;;
71303;SDS011;59091;47.446;19.148;2024-01-30T06:15:21;40.15;;;19.27;;
71303;SDS011;59091;47.446;19.148;2024-01-30T06:17:46;37.13;;;17.80;;
71303;SDS011;59091;47.446;19.148;2024-01-30T06:20:12;42.75;;;19.85;;
71303;SDS011;59091;47.446;19.148;2024-01-30T06:22:37;40.78;;;19.95;;
71303;SDS011;59091;47.446;19.148;2024-01-30T06:25:03;45.55;;;19.73;;
71303;SDS011;59091;47.446;19.148;2024-01-30T06:27:28;48.40;;;21.92;;
71303;SDS011;59091;47.446;19.148;2024-01-30T06:29:54;47.83;;;22.75;;
71303;SDS011;59091;47.446;19.148;2024-01-30T06:32:19;55.28;;;24.95;;
71303;SDS011;59091;47.446;19.148;2024-01-30T06:34:45;56.42;;;25.33;;
71303;SDS011;59091;47.446;19.148;2024-01-30T06:37:10;62.47;;;28.35;;
71303;SDS011;59091;47.446;19.148;2024-01-30T06:39:35;57.45;;;27.58;;
71303;SDS011;59091;47.446;19.148;2024-01-30T06:42:01;70.65;;;31.38;;
71303;SDS011;59091;47.446;19.148;2024-01-30T06:44:26;62.20;;;30.17;;
71303;SDS011;59091;47.446;19.148;2024-01-30T06:46:52;61.03;;;29.58;;
71303;SDS011;59091;47.446;19.148;2024-01-30T06:49:17;67.93;;;30.92;;
71303;SDS011;59091;47.446;19.148;2024-01-30T06:51:43;65.30;;;30.35;;
71303;SDS011;59091;47.446;19.148;2024-01-30T06:54:08;68.82;;;29.42;;
71303;SDS011;59091;47.446;19.148;2024-01-30T06:56:33;70.00;;;30.13;;
71303;SDS011;59091;47.446;19.148;2024-01-30T06:58:59;71.30;;;31.00;;
71303;SDS011;59091;47.446;19.148;2024-01-30T07:01:30;70.28;;;31.27;;
71303;SDS011;59091;47.446;19.148;2024-01-30T07:03:56;68.03;;;32.17;;
71303;SDS011;59091;47.446;19.148;2024-01-30T07:06:22;74.07;;;32.42;;
71303;SDS011;59091;47.446;19.148;2024-01-30T07:08:48;68.45;;;32.92;;
71303;SDS011;59091;47.446;19.148;2024-01-30T07:11:18;65.38;;;31.88;;
71303;SDS011;59091;47.446;19.148;2024-01-30T07:13:45;72.10;;;32.13;;
71303;SDS011;59091;47.446;19.148;2024-01-30T07:16:10;65.00;;;32.45;;
71303;SDS011;59091;47.446;19.148;2024-01-30T07:18:35;66.88;;;32.28;;
71303;SDS011;59091;47.446;19.148;2024-01-30T07:21:01;72.82;;;30.15;;
71303;SDS011;59091;47.446;19.148;2024-01-30T07:23:26;63.28;;;29.92;;
71303;SDS011;59091;47.446;19.148;2024-01-30T07:25:52;62.15;;;28.00;;
71303;SDS011;59091;47.446;19.148;2024-01-30T07:28:17;58.25;;;27.83;;
71303;SDS011;59091;47.446;19.148;2024-01-30T07:30:43;56.85;;;27.30;;
71303;SDS011;59091;47.446;19.148;2024-01-30T07:33:08;57.30;;;27.05;;
71303;SDS011;59091;47.446;19.148;2024-01-30T07:35:34;57.63;;;26.25;;
71303;SDS011;59091;47.446;19.148;2024-01-30T07:38:00;57.97;;;26.48;;
71303;SDS011;59091;47.446;19.148;2024-01-30T07:40:25;51.70;;;26.02;;
71303;SDS011;59091;47.446;19.148;2024-01-30T07:42:52;51.80;;;24.80;;
71303;SDS011;59091;47.446;19.148;2024-01-30T07:45:18;51.90;;;25.30;;
71303;SDS011;59091;47.446;19.148;2024-01-30T07:47:47;54.97;;;25.80;;
71303;SDS011;59091;47.446;19.148;2024-01-30T07:50:16;58.38;;;26.70;;
71303;SDS011;59091;47.446;19.148;2024-01-30T07:52:42;51.65;;;25.88;;
71303;SDS011;59091;47.446;19.148;2024-01-30T07:55:08;53.38;;;27.33;;
71303;SDS011;59091;47.446;19.148;2024-01-30T07:57:53;55.17;;;27.67;;
71303;SDS011;59091;47.446;19.148;2024-01-30T08:00:18;54.78;;;27.40;;
71303;SDS011;59091;47.446;19.148;2024-01-30T08:02:45;57.45;;;27.55;;
71303;SDS011;59091;47.446;19.148;2024-01-30T08:05:10;50.47;;;27.10;;
71303;SDS011;59091;47.446;19.148;2024-01-30T08:07:36;58.30;;;28.45;;
71303;SDS011;59091;47.446;19.148;2024-01-30T08:10:02;62.45;;;30.08;;
71303;SDS011;59091;47.446;19.148;2024-01-30T08:12:28;61.88;;;29.25;;
71303;SDS011;59091;47.446;19.148;2024-01-30T08:14:54;57.60;;;28.27;;
71303;SDS011;59091;47.446;19.148;2024-01-30T08:17:19;57.45;;;28.63;;
71303;SDS011;59091;47.446;19.148;2024-01-30T08:19:45;52.28;;;26.55;;
71303;SDS011;59091;47.446;19.148;2024-01-30T08:22:11;33.92;;;17.73;;
71303;SDS011;59091;47.446;19.148;2024-01-30T08:24:37;48.63;;;24.52;;
71303;SDS011;59091;47.446;19.148;2024-01-30T08:27:02;39.30;;;20.90;;
71303;SDS011;59091;47.446;19.148;2024-01-30T08:29:30;37.35;;;19.58;;
71303;SDS011;59091;47.446;19.148;2024-01-30T08:31:55;38.05;;;19.10;;
71303;SDS011;59091;47.446;19.148;2024-01-30T08:34:20;34.55;;;18.95;;
71303;SDS011;59091;47.446;19.148;2024-01-30T08:36:46;35.90;;;18.65;;
71303;SDS011;59091;47.446;19.148;2024-01-30T08:39:11;39.17;;;19.05;;
71303;SDS011;59091;47.446;19.148;2024-01-30T08:41:37;39.13;;;18.80;;
71303;SDS011;59091;47.446;19.148;2024-01-30T08:44:02;40.03;;;20.27;;
71303;SDS011;59091;47.446;19.148;2024-01-30T08:46:29;35.95;;;20.30;;
71303;SDS011;59091;47.446;19.148;2024-01-30T08:48:55;39.88;;;19.98;;
71303;SDS011;59091;47.446;19.148;2024-01-30T08:51:21;40.25;;;20.88;;
71303;SDS011;59091;47.446;19.148;2024-01-30T08:53:47;40.38;;;21.23;;
71303;SDS011;59091;47.446;19.148;2024-01-30T08:56:12;39.67;;;20.65;;
71303;SDS011;59091;47.446;19.148;2024-01-30T08:58:38;41.95;;;20.38;;
71303;SDS011;59091;47.446;19.148;2024-01-30T09:01:04;39.72;;;19.38;;
71303;SDS011;59091;47.446;19.148;2024-01-30T09:03:30;37.80;;;19.25;;
71303;SDS011;59091;47.446;19.148;2024-01-30T09:05:56;33.65;;;18.88;;
71303;SDS011;59091;47.446;19.148;2024-01-30T09:08:21;31.85;;;18.13;;
71303;SDS011;59091;47.446;19.148;2024-01-30T09:10:47;38.05;;;19.30;;
71303;SDS011;59091;47.446;19.148;2024-01-30T09:13:13;36.63;;;19.23;;
71303;SDS011;59091;47.446;19.148;2024-01-30T09:15:38;36.90;;;19.83;;
71303;SDS011;59091;47.446;19.148;2024-01-30T09:18:04;39.65;;;18.90;;
71303;SDS011;59091;47.446;19.148;2024-01-30T09:20:29;36.83;;;18.98;;
71303;SDS011;59091;47.446;19.148;2024-01-30T09:22:56;41.90;;;19.35;;
71303;SDS011;59091;47.446;19.148;2024-01-30T09:25:22;35.72;;;18.58;;
71303;SDS011;59091;47.446;19.148;2024-01-30T09:27:47;36.55;;;19.35;;
71303;SDS011;59091;47.446;19.148;2024-01-30T09:30:13;40.25;;;20.98;;
71303;SDS011;59091;47.446;19.148;2024-01-30T09:32:39;38.25;;;20.73;;
71303;SDS011;59091;47.446;19.148;2024-01-30T09:35:05;37.05;;;20.40;;
71303;SDS011;59091;47.446;19.148;2024-01-30T09:37:31;36.97;;;21.00;;
71303;SDS011;59091;47.446;19.148;2024-01-30T09:39:56;38.40;;;20.80;;
71303;SDS011;59091;47.446;19.148;2024-01-30T09:45:01;42.08;;;20.48;;
71303;SDS011;59091;47.446;19.148;2024-01-30T09:47:30;38.90;;;20.77;;
71303;SDS011;59091;47.446;19.148;2024-01-30T09:50:08;38.05;;;20.00;;
71303;SDS011;59091;47.446;19.148;2024-01-30T09:52:35;41.10;;;21.35;;
71303;SDS011;59091;47.446;19.148;2024-01-30T09:55:00;34.25;;;19.20;;
71303;SDS011;59091;47.446;19.148;2024-01-30T09:57:26;39.22;;;20.85;;
71303;SDS011;59091;47.446;19.148;2024-01-30T09:59:52;36.55;;;20.05;;
71303;SDS011;59091;47.446;19.148;2024-01-30T10:02:19;36.10;;;19.70;;
71303;SDS011;59091;47.446;19.148;2024-01-30T10:04:47;39.78;;;22.77;;
71303;SDS011;59091;47.446;19.148;2024-01-30T10:07:14;34.08;;;21.17;;
71303;SDS011;59091;47.446;19.148;2024-01-30T10:09:40;37.65;;;21.45;;
71303;SDS011;59091;47.446;19.148;2024-01-30T10:12:06;38.22;;;21.35;;
71303;SDS011;59091;47.446;19.148;2024-01-30T10:14:32;40.85;;;21.35;;
71303;SDS011;59091;47.446;19.148;2024-01-30T10:16:58;39.88;;;20.90;;
71303;SDS011;59091;47.446;19.148;2024-01-30T10:19:24;35.10;;;19.88;;
71303;SDS011;59091;47.446;19.148;2024-01-30T10:21:49;32.80;;;19.23;;
71303;SDS011;59091;47.446;19.148;2024-01-30T10:24:15;32.97;;;19.75;;
71303;SDS011;59091;47.446;19.148;2024-01-30T10:26:43;33.53;;;19.20;;
71303;SDS011;59091;47.446;19.148;2024-01-30T10:29:08;33.88;;;19.30;;
71303;SDS011;59091;47.446;19.148;2024-01-30T10:31:34;37.15;;;20.00;;
71303;SDS011;59091;47.446;19.148;2024-01-30T10:33:59;37.58;;;20.20;;
71303;SDS011;59091;47.446;19.148;2024-01-30T10:36:27;36.30;;;19.38;;
71303;SDS011;59091;47.446;19.148;2024-01-30T10:38:55;32.28;;;16.85;;
71303;SDS011;59091;47.446;19.148;2024-01-30T10:41:26;28.13;;;16.80;;
71303;SDS011;59091;47.446;19.148;2024-01-30T10:43:57;38.15;;;18.13;;
71303;SDS011;59091;47.446;19.148;2024-01-30T10:46:30;32.38;;;17.63;;
71303;SDS011;59091;47.446;19.148;2024-01-30T10:48:57;33.13;;;18.25;;
71303;SDS011;59091;47.446;19.148;2024-01-30T10:51:26;38.90;;;19.42;;
71303;SDS011;59091;47.446;19.148;2024-01-30T10:53:53;36.28;;;18.80;;
71303;SDS011;59091;47.446;19.148;2024-01-30T10:56:20;33.22;;;18.63;;
71303;SDS011;59091;47.446;19.148;2024-01-30T10:58:46;39.45;;;18.67;;
71303;SDS011;59091;47.446;19.148;2024-01-30T11:01:14;33.33;;;14.45;;
71303;SDS011;59091;47.446;19.148;2024-01-30T11:03:40;25.15;;;13.27;;
71303;SDS011;59091;47.446;19.148;2024-01-30T11:06:10;27.55;;;13.55;;
71303;SDS011;59091;47.446;19.148;2024-01-30T11:08:37;29.40;;;13.30;;
71303;SDS011;59091;47.446;19.148;2024-01-30T11:11:02;24.10;;;13.85;;
71303;SDS011;59091;47.446;19.148;2024-01-30T11:13:34;23.77;;;12.98;;
71303;SDS011;59091;47.446;19.148;2024-01-30T11:16:00;25.10;;;13.85;;
71303;SDS011;59091;47.446;19.148;2024-01-30T11:18:30;24.30;;;14.98;;
71303;SDS011;59091;47.446;19.148;2024-01-30T11:20:56;26.23;;;15.43;;
71303;SDS011;59091;47.446;19.148;2024-01-30T11:23:23;27.02;;;15.38;;
71303;SDS011;59091;47.446;19.148;2024-01-30T11:25:48;26.70;;;14.95;;
71303;SDS011;59091;47.446;19.148;2024-01-30T11:28:15;27.55;;;15.32;;
71303;SDS011;59091;47.446;19.148;2024-01-30T11:30:41;26.92;;;14.65;;
71303;SDS011;59091;47.446;19.148;2024-01-30T11:33:08;25.48;;;14.88;;
71303;SDS011;59091;47.446;19.148;2024-01-30T11:35:36;27.60;;;15.15;;
71303;SDS011;59091;47.446;19.148;2024-01-30T11:38:04;28.88;;;14.77;;
71303;SDS011;59091;47.446;19.148;2024-01-30T11:40:31;28.88;;;16.10;;
71303;SDS011;59091;47.446;19.148;2024-01-30T11:43:01;24.00;;;14.02;;
71303;SDS011;59091;47.446;19.148;2024-01-30T11:45:28;27.15;;;15.10;;
71303;SDS011;59091;47.446;19.148;2024-01-30T11:47:53;23.60;;;13.80;;
71303;SDS011;59091;47.446;19.148;2024-01-30T11:50:19;25.63;;;15.57;;
71303;SDS011;59091;47.446;19.148;2024-01-30T11:52:45;22.35;;;14.13;;
71303;SDS011;59091;47.446;19.148;2024-01-30T11:55:11;30.05;;;15.57;;
71303;SDS011;59091;47.446;19.148;2024-01-30T11:57:37;32.15;;;16.25;;
71303;SDS011;59091;47.446;19.148;2024-01-30T12:00:03;20.23;;;10.60;;
71303;SDS011;59091;47.446;19.148;2024-01-30T12:02:35;21.63;;;11.68;;
71303;SDS011;59091;47.446;19.148;2024-01-30T12:05:04;19.95;;;10.68;;
71303;SDS011;59091;47.446;19.148;2024-01-30T12:07:30;20.90;;;11.57;;
71303;SDS011;59091;47.446;19.148;2024-01-30T12:09:56;20.67;;;12.15;;
71303;SDS011;59091;47.446;19.148;2024-01-30T12:12:25;20.55;;;10.98;;
71303;SDS011;59091;47.446;19.148;2024-01-30T12:14:51;19.02;;;10.88;;
71303;SDS011;59091;47.446;19.148;2024-01-30T12:17:23;16.58;;;10.73;;
71303;SDS011;59091;47.446;19.148;2024-01-30T12:20:11;15.65;;;10.55;;
71303;SDS011;59091;47.446;19.148;2024-01-30T12:25:10;20.58;;;11.68;;
71303;SDS011;59091;47.446;19.148;2024-01-30T12:27:37;21.95;;;12.43;;
71303;SDS011;59091;47.446;19.148;2024-01-30T12:30:10;18.15;;;11.00;;
71303;SDS011;59091;47.446;19.148;2024-01-30T12:32:36;20.75;;;11.65;;
71303;SDS011;59091;47.446;19.148;2024-01-30T12:35:10;18.90;;;11.35;;
71303;SDS011;59091;47.446;19.148;2024-01-30T12:37:37;18.27;;;10.98;;
71303;SDS011;59091;47.446;19.148;2024-01-30T12:40:03;20.60;;;10.35;;
71303;SDS011;59091;47.446;19.148;2024-01-30T12:42:29;15.25;;;9.07;;
71303;SDS011;59091;47.446;19.148;2024-01-30T12:44:56;16.15;;;8.55;;
71303;SDS011;59091;47.446;19.148;2024-01-30T12:47:22;13.88;;;8.35;;
71303;SDS011;59091;47.446;19.148;2024-01-30T12:49:48;14.00;;;7.05;;
71303;SDS011;59091;47.446;19.148;2024-01-30T12:52:16;12.70;;;7.90;;
71303;SDS011;59091;47.446;19.148;2024-01-30T12:54:42;9.52;;;6.55;;
71303;SDS011;59091;47.446;19.148;2024-01-30T12:57:07;13.93;;;7.32;;
71303;SDS011;59091;47.446;19.148;2024-01-30T12:59:33;13.43;;;6.90;;
71303;SDS011;59091;47.446;19.148;2024-01-30T13:02:00;9.55;;;6.75;;
71303;SDS011;59091;47.446;19.148;2024-01-30T13:04:26;11.98;;;6.72;;
71303;SDS011;59091;47.446;19.148;2024-01-30T13:06:52;11.35;;;7.03;;
71303;SDS011;59091;47.446;19.148;2024-01-30T13:09:18;9.32;;;6.55;;
71303;SDS011;59091;47.446;19.148;2024-01-30T13:11:43;10.88;;;6.45;;
71303;SDS011;59091;47.446;19.148;2024-01-30T13:14:08;10.95;;;7.05;;
71303;SDS011;59091;47.446;19.148;2024-01-30T13:16:34;12.65;;;7.43;;
71303;SDS011;59091;47.446;19.148;2024-01-30T13:18:59;11.40;;;6.93;;
71303;SDS011;59091;47.446;19.148;2024-01-30T13:21:26;11.45;;;7.38;;
71303;SDS011;59091;47.446;19.148;2024-01-30T13:23:52;9.90;;;6.60;;
71303;SDS011;59091;47.446;19.148;2024-01-30T13:26:19;12.70;;;7.43;;
71303;SDS011;59091;47.446;19.148;2024-01-30T13:28:47;14.43;;;7.85;;
71303;SDS011;59091;47.446;19.148;2024-01-30T13:31:15;22.40;;;8.45;;
71303;SDS011;59091;47.446;19.148;2024-01-30T13:33:41;15.75;;;8.30;;
71303;SDS011;59091;47.446;19.148;2024-01-30T13:36:07;11.52;;;7.72;;
71303;SDS011;59091;47.446;19.148;2024-01-30T13:38:33;12.77;;;7.45;;
71303;SDS011;59091;47.446;19.148;2024-01-30T13:40:59;16.48;;;7.85;;
71303;SDS011;59091;47.446;19.148;2024-01-30T13:43:25;12.65;;;7.57;;
71303;SDS011;59091;47.446;19.148;2024-01-30T13:45:50;19.60;;;8.50;;
71303;SDS011;59091;47.446;19.148;2024-01-30T13:48:16;15.23;;;8.88;;
71303;SDS011;59091;47.446;19.148;2024-01-30T13:50:41;20.63;;;9.70;;
71303;SDS011;59091;47.446;19.148;2024-01-30T13:53:07;24.23;;;10.85;;
71303;SDS011;59091;47.446;19.148;2024-01-30T13:55:33;21.65;;;8.93;;
71303;SDS011;59091;47.446;19.148;2024-01-30T13:57:59;12.77;;;8.00;;
71303;SDS011;59091;47.446;19.148;2024-01-30T14:00:24;13.45;;;7.80;;
71303;SDS011;59091;47.446;19.148;2024-01-30T14:02:51;9.68;;;6.97;;
71303;SDS011;59091;47.446;19.148;2024-01-30T14:05:16;10.23;;;6.38;;
71303;SDS011;59091;47.446;19.148;2024-01-30T14:07:43;8.65;;;5.90;;
71303;SDS011;59091;47.446;19.148;2024-01-30T14:10:09;10.10;;;6.47;;